Terminal Aerodrome Forecast
Issued by NWS

Home | Current Version | Previous Version | Text Only | Print | Product List | Glossary On
Versions: 1 2 3 4 5 6 7 8 9 10 11 12 13 14 15 16 17 18 19 20 21 22 23 24 25 26
884
FTUS43 KGRB 222320
TAFAUW
TAF
KAUW 222320Z 2300/2324 28007G15KT P6SM SCT050 BKN070
     FM230300 VRB03KT P6SM SCT050 BKN070
     FM230700 VRB03KT P6SM BKN050
      TEMPO 2311/2315 4SM -SHRA BR OVC025
     FM231500 06005KT P6SM VCSH OVC025 PROB30 2317/2323 4SM -SHRA
      BKN012
     FM232300 04004KT P6SM OVC015=

USA.gov is the U.S. government's official web portal to all federal, state and local government web resources and services.